createdAt,value
2019-01-02T00:00:21.601Z,99.99
2019-01-02T00:01:21.595Z,99.99
2019-01-02T00:02:21.590Z,99.99
2019-01-02T00:03:21.613Z,99.99
2019-01-02T00:04:21.575Z,99.99
2019-01-02T00:05:21.569Z,99.99
2019-01-02T00:06:21.564Z,99.99
2019-01-02T00:07:21.556Z,99.99
2019-01-02T00:08:21.576Z,99.99
2019-01-02T00:09:21.547Z,99.99
2019-01-02T00:10:21.537Z,99.99
2019-01-02T00:11:21.536Z,99.99
2019-01-02T00:12:21.523Z,99.99
2019-01-02T00:13:21.544Z,99.99
2019-01-02T00:14:21.517Z,99.99
2019-01-02T00:15:21.508Z,99.99
2019-01-02T00:16:21.504Z,99.99
2019-01-02T00:17:21.494Z,99.99
2019-01-02T00:18:21.516Z,99.99
2019-01-02T00:19:21.481Z,99.99
2019-01-02T00:20:21.478Z,99.99
2019-01-02T00:21:21.468Z,99.99
2019-01-02T00:22:21.464Z,99.99
2019-01-02T00:23:21.483Z,99.99
2019-01-02T00:24:21.450Z,99.99
2019-01-02T00:25:21.443Z,99.99
2019-01-02T00:26:21.439Z,99.99
2019-01-02T00:27:21.428Z,99.99
2019-01-02T00:28:21.453Z,99.99
2019-01-02T00:29:21.426Z,99.99
2019-01-02T00:30:21.413Z,99.99
2019-01-02T00:31:21.407Z,99.99
2019-01-02T00:32:21.397Z,99.99
2019-01-02T00:33:21.419Z,99.99
2019-01-02T00:34:21.415Z,99.99
2019-01-02T00:35:21.382Z,99.99
2019-01-02T00:36:21.371Z,99.99
2019-01-02T00:37:21.413Z,99.99
2019-01-02T00:38:21.361Z,99.99
2019-01-02T00:39:21.383Z,99.99
2019-01-02T00:40:21.350Z,99.99
2019-01-02T00:41:21.347Z,99.99
2019-01-02T00:42:21.334Z,99.99
2019-01-02T00:43:21.333Z,99.99
2019-01-02T00:44:21.349Z,99.99
2019-01-02T00:45:22.388Z,99.99
2019-01-02T00:46:21.310Z,99.99
2019-01-02T00:47:21.310Z,99.99
2019-01-02T00:48:21.323Z,99.99
2019-01-02T00:49:21.296Z,99.99
2019-01-02T00:50:21.286Z,99.99
2019-01-02T00:51:21.283Z,99.99
2019-01-02T00:52:21.271Z,99.99
2019-01-02T00:53:21.295Z,99.99
2019-01-02T00:54:21.285Z,99.99
2019-01-02T00:55:21.253Z,99.99
2019-01-02T00:56:21.247Z,99.99
2019-01-02T00:57:21.240Z,99.99
2019-01-02T00:58:21.233Z,99.99
2019-01-02T00:59:21.255Z,99.99
2019-01-02T01:00:21.222Z,99.99
2019-01-02T01:01:21.217Z,99.99
2019-01-02T01:02:21.208Z,99.99
2019-01-02T01:03:21.212Z,99.99
2019-01-02T01:04:21.226Z,99.99
2019-01-02T01:05:21.192Z,99.99
2019-01-02T01:06:21.185Z,99.99
2019-01-02T01:07:21.175Z,99.99
2019-01-02T01:08:21.176Z,99.99
2019-01-02T01:09:21.192Z,99.99
2019-01-02T01:10:21.159Z,99.99
2019-01-02T01:11:21.153Z,99.99
2019-01-02T01:12:21.151Z,99.99
2019-01-02T01:13:21.143Z,99.99
2019-01-02T01:14:21.173Z,99.99
2019-01-02T01:15:21.128Z,99.99
2019-01-02T01:16:21.123Z,99.99
2019-01-02T01:17:21.115Z,99.99
2019-01-02T01:18:21.135Z,99.99
2019-01-02T01:19:21.102Z,99.99
2019-01-02T01:20:21.121Z,99.99
2019-01-02T01:21:21.091Z,99.99
2019-01-02T01:22:21.085Z,99.99
2019-01-02T01:23:21.085Z,99.99
2019-01-02T01:24:21.069Z,99.99
2019-01-02T01:25:21.089Z,99.99
2019-01-02T01:26:21.059Z,99.99
2019-01-02T01:27:21.052Z,99.99
2019-01-02T01:28:21.047Z,99.99
2019-01-02T01:29:21.044Z,99.99
2019-01-02T01:30:21.061Z,99.76
2019-01-02T01:31:21.028Z,97.77
2019-01-02T01:32:21.022Z,95.78
2019-01-02T01:33:21.024Z,94.18
2019-01-02T01:34:21.058Z,93.42
2019-01-02T01:35:21.030Z,94.56
2019-01-02T01:36:20.999Z,92.66
2019-01-02T01:37:20.989Z,96.26
2019-01-02T01:38:20.983Z,91.05
2019-01-02T01:39:20.977Z,96.73
2019-01-02T01:40:20.996Z,99.99
2019-01-02T01:41:20.965Z,99.99
2019-01-02T01:42:20.957Z,99.99
2019-01-02T01:43:20.956Z,99.99
2019-01-02T01:44:20.946Z,99.99
2019-01-02T01:45:20.993Z,99.99
2019-01-02T01:46:20.939Z,99.99
2019-01-02T01:47:20.927Z,99.99
2019-01-02T01:48:20.929Z,99.99
2019-01-02T01:49:20.914Z,99.99
2019-01-02T01:50:20.938Z,99.99
2019-01-02T01:51:20.918Z,99.99
2019-01-02T01:52:20.898Z,99.99
2019-01-02T01:53:20.890Z,99.99
2019-01-02T01:54:20.884Z,99.99
2019-01-02T01:55:20.904Z,99.99
2019-01-02T01:56:20.871Z,99.99
2019-01-02T01:57:20.862Z,99.99
2019-01-02T01:58:20.863Z,99.99
2019-01-02T01:59:20.851Z,99.99
2019-01-02T02:00:20.896Z,99.99
2019-01-02T02:01:20.842Z,99.99
2019-01-02T02:02:20.833Z,99.99
2019-01-02T02:03:20.825Z,99.99
2019-01-02T02:04:20.819Z,99.99
2019-01-02T02:05:20.838Z,99.99
2019-01-02T02:06:20.809Z,99.99
2019-01-02T02:07:20.803Z,99.99
2019-01-02T02:08:20.797Z,99.99
2019-01-02T02:09:20.790Z,99.99
2019-01-02T02:10:20.811Z,99.99
2019-01-02T02:11:20.775Z,99.99
2019-01-02T02:12:20.772Z,99.66
2019-01-02T02:13:20.765Z,99.85
2019-01-02T02:14:20.786Z,99.10
2019-01-02T02:15:20.751Z,97.30
2019-01-02T02:16:20.771Z,99.66
2019-01-02T02:17:20.740Z,98.34
2019-01-02T02:18:20.735Z,99.99
2019-01-02T02:19:20.727Z,99.99
2019-01-02T02:20:20.748Z,97.20
2019-01-02T02:21:20.717Z,97.77
2019-01-02T02:22:20.711Z,98.06
2019-01-02T02:23:20.702Z,99.99
2019-01-02T02:24:20.700Z,99.99
2019-01-02T02:25:20.717Z,96.26
2019-01-02T02:26:20.687Z,96.73
2019-01-02T02:27:20.677Z,98.06
2019-01-02T02:28:20.671Z,97.49
2019-01-02T02:29:20.666Z,96.92
2019-01-02T02:30:20.691Z,96.83
2019-01-02T02:31:20.651Z,96.26
2019-01-02T02:32:20.647Z,99.99
2019-01-02T02:33:20.645Z,99.99
2019-01-02T02:34:20.635Z,98.72
2019-01-02T02:35:20.635Z,99.99
2019-01-02T02:36:20.649Z,99.99
2019-01-02T02:37:20.622Z,99.99
2019-01-02T02:38:20.618Z,99.99
2019-01-02T02:39:20.608Z,99.99
2019-01-02T02:40:20.598Z,99.99
2019-01-02T02:41:20.622Z,99.99
2019-01-02T02:42:20.586Z,99.99
2019-01-02T02:43:20.580Z,99.99
2019-01-02T02:44:20.573Z,99.99
2019-01-02T02:45:20.569Z,99.99
2019-01-02T02:46:20.597Z,99.24
2019-01-02T02:47:20.556Z,96.88
2019-01-02T02:48:20.551Z,99.99
2019-01-02T02:49:20.546Z,99.99
2019-01-02T02:50:20.539Z,99.99
2019-01-02T02:51:20.559Z,99.99
2019-01-02T02:52:20.525Z,99.99
2019-01-02T02:53:20.520Z,99.99
2019-01-02T02:54:20.541Z,99.99
2019-01-02T02:55:20.506Z,99.99
2019-01-02T02:56:20.501Z,99.99
2019-01-02T02:57:20.519Z,99.99
2019-01-02T02:58:20.489Z,99.99
2019-01-02T02:59:20.486Z,99.99
2019-01-02T03:00:20.476Z,99.99
2019-01-02T03:01:20.470Z,98.86
2019-01-02T03:02:20.492Z,99.99
2019-01-02T03:03:20.457Z,99.52
2019-01-02T03:04:20.452Z,99.99
2019-01-02T03:05:20.450Z,99.99
2019-01-02T03:06:20.444Z,99.99
2019-01-02T03:07:20.462Z,97.54
2019-01-02T03:08:20.430Z,98.49
2019-01-02T03:09:20.423Z,99.71
2019-01-02T03:10:20.420Z,98.96
2019-01-02T03:11:20.411Z,99.33
2019-01-02T03:12:20.432Z,99.99
2019-01-02T03:13:20.398Z,99.71
2019-01-02T03:14:20.398Z,97.63
2019-01-02T03:15:20.385Z,98.86
2019-01-02T03:16:20.380Z,99.99
2019-01-02T03:17:20.403Z,99.62
2019-01-02T03:18:20.368Z,98.58
2019-01-02T03:19:20.363Z,99.90
2019-01-02T03:20:20.382Z,98.30
2019-01-02T03:21:20.349Z,98.77
2019-01-02T03:22:20.344Z,99.99
2019-01-02T03:23:20.359Z,98.77
2019-01-02T03:24:20.331Z,97.44
2019-01-02T03:25:20.330Z,97.16
2019-01-02T03:26:20.320Z,99.24
2019-01-02T03:27:20.315Z,99.43
2019-01-02T03:28:20.335Z,99.05
2019-01-02T03:29:20.303Z,99.99
2019-01-02T03:30:20.299Z,99.71
2019-01-02T03:31:20.293Z,99.99
2019-01-02T03:32:20.285Z,99.99
2019-01-02T03:33:20.307Z,99.99
2019-01-02T03:34:20.274Z,99.99
2019-01-02T03:35:20.273Z,99.99
2019-01-02T03:36:20.260Z,99.99
2019-01-02T03:37:20.259Z,99.99
2019-01-02T03:38:20.309Z,99.99
2019-01-02T03:39:20.246Z,99.99
2019-01-02T03:40:20.237Z,99.99
2019-01-02T03:41:20.232Z,99.99
2019-01-02T03:42:20.223Z,99.99
2019-01-02T03:43:20.244Z,99.99
2019-01-02T03:44:20.215Z,99.90
2019-01-02T03:45:20.209Z,99.99
2019-01-02T03:46:20.201Z,99.99
2019-01-02T03:47:20.196Z,99.99
2019-01-02T03:48:20.218Z,99.99
2019-01-02T03:49:20.182Z,99.99
2019-01-02T03:50:20.177Z,99.99
2019-01-02T03:51:20.170Z,99.99
2019-01-02T03:52:20.165Z,99.99
2019-01-02T03:53:20.245Z,99.99
2019-01-02T03:54:20.153Z,99.99
2019-01-02T03:55:20.150Z,99.99
2019-01-02T03:56:20.141Z,99.99
2019-01-02T03:57:20.134Z,99.99
2019-01-02T03:58:20.159Z,99.99
2019-01-02T03:59:20.125Z,99.95
2019-01-02T04:00:20.149Z,98.25
2019-01-02T04:01:20.111Z,99.85
2019-01-02T04:02:20.109Z,97.58
2019-01-02T04:03:20.104Z,97.68
2019-01-02T04:04:20.121Z,99.85
2019-01-02T04:05:20.087Z,97.49
2019-01-02T04:06:20.083Z,99.10
2019-01-02T04:07:20.078Z,98.34
2019-01-02T04:08:20.096Z,98.15
2019-01-02T04:09:20.059Z,97.11
2019-01-02T04:10:20.087Z,94.93
2019-01-02T04:11:20.050Z,95.59
2019-01-02T04:12:20.044Z,94.84
2019-01-02T04:13:20.073Z,93.13
2019-01-02T04:14:20.039Z,91.34
2019-01-02T04:15:20.033Z,90.77
2019-01-02T04:16:20.068Z,91.62
2019-01-02T04:17:20.016Z,90.20
2019-01-02T04:18:20.007Z,87.17
2019-01-02T04:19:20.030Z,86.60
2019-01-02T04:20:19.997Z,86.51
2019-01-02T04:21:19.991Z,86.98
2019-01-02T04:22:19.986Z,88.87
2019-01-02T04:23:19.977Z,86.51
2019-01-02T04:24:19.997Z,85.00
2019-01-02T04:25:19.965Z,87.08
2019-01-02T04:26:19.960Z,87.27
2019-01-02T04:27:19.953Z,87.27
2019-01-02T04:28:19.973Z,88.40
2019-01-02T04:29:19.944Z,87.93
2019-01-02T04:30:19.935Z,88.40
2019-01-02T04:31:19.930Z,86.41
2019-01-02T04:32:19.924Z,85.57
2019-01-02T04:33:19.950Z,90.11
2019-01-02T04:34:19.910Z,90.11
2019-01-02T04:35:19.907Z,88.31
2019-01-02T04:36:19.899Z,85.09
2019-01-02T04:37:19.894Z,88.31
2019-01-02T04:38:19.913Z,86.22
2019-01-02T04:39:19.886Z,87.27
2019-01-02T04:40:19.875Z,87.55
2019-01-02T04:41:19.869Z,86.51
2019-01-02T04:42:19.862Z,88.12
2019-01-02T04:43:19.883Z,85.57
2019-01-02T04:44:19.849Z,83.10
2019-01-02T04:45:19.843Z,84.90
2019-01-02T04:46:19.837Z,85.00
2019-01-02T04:47:19.831Z,84.23
2019-01-02T04:48:19.847Z,82.63
2019-01-02T04:49:19.818Z,82.34
2019-01-02T04:50:19.821Z,84.23
2019-01-02T04:51:19.805Z,82.91
2019-01-02T04:52:19.799Z,83.20
2019-01-02T04:53:19.820Z,83.01
2019-01-02T04:54:19.797Z,83.01
2019-01-02T04:55:19.780Z,81.87
2019-01-02T04:56:19.782Z,83.67
2019-01-02T04:57:19.768Z,85.75
2019-01-02T04:58:19.788Z,85.00
2019-01-02T04:59:19.757Z,82.53
2019-01-02T05:00:19.748Z,82.02
2019-01-02T05:01:19.743Z,83.06
2019-01-02T05:02:19.735Z,83.06
2019-01-02T05:03:19.756Z,82.59
2019-01-02T05:04:19.722Z,82.31
2019-01-02T05:05:19.716Z,84.10
2019-01-02T05:06:19.711Z,84.01
2019-01-02T05:07:19.703Z,85.99
2019-01-02T05:08:19.726Z,84.86
2019-01-02T05:09:19.691Z,85.80
2019-01-02T05:10:19.684Z,83.63
2019-01-02T05:11:19.676Z,86.56
2019-01-02T05:12:19.668Z,86.09
2019-01-02T05:13:19.688Z,85.80
2019-01-02T05:14:19.658Z,85.71
2019-01-02T05:15:19.650Z,87.51
2019-01-02T05:16:19.643Z,82.78
2019-01-02T05:17:19.639Z,85.71
2019-01-02T05:18:19.658Z,85.71
2019-01-02T05:19:19.628Z,87.51
2019-01-02T05:20:19.619Z,89.31
2019-01-02T05:21:19.612Z,90.44
2019-01-02T05:22:19.631Z,90.82
2019-01-02T05:23:19.598Z,88.83
2019-01-02T05:24:19.589Z,91.96
2019-01-02T05:25:19.585Z,91.20
2019-01-02T05:26:19.577Z,90.53
2019-01-02T05:27:19.595Z,90.82
2019-01-02T05:28:19.563Z,91.67
2019-01-02T05:29:19.561Z,92.05
2019-01-02T05:30:19.549Z,91.53
2019-01-02T05:31:19.542Z,92.57
2019-01-02T05:32:19.563Z,92.38
2019-01-02T05:33:19.531Z,94.93
2019-01-02T05:34:19.523Z,94.18
2019-01-02T05:35:19.524Z,96.35
2019-01-02T05:36:19.507Z,96.35
2019-01-02T05:37:19.530Z,97.02
2019-01-02T05:38:19.496Z,96.16
2019-01-02T05:39:19.489Z,94.27
2019-01-02T05:40:19.483Z,96.45
2019-01-02T05:41:19.477Z,95.59
2019-01-02T05:42:19.497Z,95.59
2019-01-02T05:43:19.467Z,97.49
2019-01-02T05:44:19.452Z,96.16
2019-01-02T05:45:19.451Z,97.58
2019-01-02T05:46:19.442Z,94.98
2019-01-02T05:47:19.463Z,95.45
2019-01-02T05:48:19.431Z,93.13
2019-01-02T05:49:19.425Z,95.55
2019-01-02T05:50:19.421Z,94.70
2019-01-02T05:51:19.411Z,94.89
2019-01-02T05:52:19.432Z,94.79
2019-01-02T05:53:19.396Z,94.32
2019-01-02T05:54:20.118Z,91.67
2019-01-02T05:55:19.385Z,93.28
2019-01-02T05:56:19.379Z,89.97
2019-01-02T05:57:19.397Z,91.48
2019-01-02T05:58:19.394Z,92.71
2019-01-02T05:59:19.356Z,93.18
2019-01-02T06:00:19.359Z,92.33
2019-01-02T06:01:19.344Z,91.01
2019-01-02T06:02:19.341Z,90.72
2019-01-02T06:03:19.375Z,91.39
2019-01-02T06:04:19.322Z,91.77
2019-01-02T06:05:19.316Z,91.86
2019-01-02T06:06:19.309Z,92.43
2019-01-02T06:07:19.302Z,92.24
2019-01-02T06:08:19.321Z,92.43
2019-01-02T06:09:19.300Z,93.09
2019-01-02T06:10:19.286Z,96.59
2019-01-02T06:11:19.277Z,96.54
2019-01-02T06:12:19.270Z,95.88
2019-01-02T06:13:19.290Z,97.87
2019-01-02T06:14:19.257Z,96.64
2019-01-02T06:15:19.254Z,97.49
2019-01-02T06:16:19.244Z,96.83
2019-01-02T06:17:19.234Z,97.49
2019-01-02T06:18:19.255Z,96.92
2019-01-02T06:19:19.224Z,96.35
2019-01-02T06:20:19.215Z,97.11
2019-01-02T06:21:19.212Z,98.63
2019-01-02T06:22:19.203Z,98.06
2019-01-02T06:23:19.226Z,97.39
2019-01-02T06:24:19.191Z,95.59
2019-01-02T06:25:19.187Z,98.72
2019-01-02T06:26:19.188Z,99.01
2019-01-02T06:27:19.169Z,97.68
2019-01-02T06:28:19.190Z,99.99
2019-01-02T06:29:19.156Z,99.99
2019-01-02T06:30:19.156Z,98.15
2019-01-02T06:31:19.146Z,99.99
2019-01-02T06:32:19.136Z,98.53
2019-01-02T06:33:19.156Z,99.66
2019-01-02T06:34:19.127Z,99.85
2019-01-02T06:35:19.117Z,99.99
2019-01-02T06:36:19.111Z,99.99
2019-01-02T06:37:19.105Z,99.99
2019-01-02T06:38:19.128Z,99.99
2019-01-02T06:39:19.101Z,99.99
2019-01-02T06:40:19.088Z,99.99
2019-01-02T06:41:19.082Z,99.99
2019-01-02T06:42:19.075Z,99.99
2019-01-02T06:43:19.092Z,99.99
2019-01-02T06:44:19.089Z,99.99
2019-01-02T06:45:19.053Z,99.99
2019-01-02T06:46:20.145Z,99.99
2019-01-02T06:47:19.040Z,99.99
2019-01-02T06:48:19.040Z,99.99
2019-01-02T06:49:19.056Z,99.99
2019-01-02T06:50:19.024Z,99.99
2019-01-02T06:51:19.014Z,99.99
2019-01-02T06:52:19.014Z,99.99
2019-01-02T06:53:19.002Z,99.99
2019-01-02T06:54:19.024Z,99.99
2019-01-02T06:55:18.988Z,99.99
2019-01-02T06:56:18.986Z,99.99
2019-01-02T06:57:18.977Z,99.99
2019-01-02T06:58:18.972Z,99.99
2019-01-02T06:59:18.989Z,99.99
2019-01-02T07:00:18.959Z,99.99
2019-01-02T07:01:18.954Z,99.99
2019-01-02T07:02:18.947Z,99.99
2019-01-02T07:03:18.937Z,99.99
2019-01-02T07:04:18.960Z,99.99
2019-01-02T07:05:18.925Z,99.99
2019-01-02T07:06:18.925Z,99.99
2019-01-02T07:07:18.913Z,99.99
2019-01-02T07:08:18.956Z,99.99
2019-01-02T07:09:18.927Z,99.99
2019-01-02T07:10:19.254Z,99.99
2019-01-02T07:11:18.887Z,99.99
2019-01-02T07:12:18.882Z,99.99
2019-01-02T07:13:18.877Z,99.99
2019-01-02T07:14:18.894Z,99.99
2019-01-02T07:15:18.865Z,99.99
2019-01-02T07:16:18.854Z,99.99
2019-01-02T07:17:18.857Z,99.99
2019-01-02T07:18:18.869Z,99.99
2019-01-02T07:19:18.835Z,99.99
2019-01-02T07:20:18.829Z,99.99
2019-01-02T07:21:18.822Z,99.99
2019-01-02T07:22:18.815Z,99.99
2019-01-02T07:23:18.839Z,99.99
2019-01-02T07:24:18.803Z,99.99
2019-01-02T07:25:18.798Z,99.99
2019-01-02T07:26:18.789Z,99.99
2019-01-02T07:27:18.782Z,99.99
2019-01-02T07:28:18.804Z,99.99
2019-01-02T07:29:18.773Z,99.99
2019-01-02T07:30:18.765Z,99.99
2019-01-02T07:31:18.760Z,99.99
2019-01-02T07:32:24.488Z,99.99
2019-01-02T07:33:18.772Z,99.99
2019-01-02T07:34:18.739Z,99.99
2019-01-02T07:35:18.731Z,99.99
2019-01-02T07:36:18.726Z,99.99
2019-01-02T07:37:18.730Z,99.99
2019-01-02T07:38:18.738Z,99.99
2019-01-02T07:39:18.707Z,99.99
2019-01-02T07:40:18.701Z,99.99
2019-01-02T07:41:18.696Z,99.99
2019-01-02T07:42:18.692Z,99.99
2019-01-02T07:43:18.709Z,99.99
2019-01-02T07:44:18.681Z,99.99
2019-01-02T07:45:18.668Z,99.99
2019-01-02T07:46:18.662Z,99.99
2019-01-02T07:47:18.655Z,99.99
2019-01-02T07:48:18.685Z,99.99
2019-01-02T07:49:18.669Z,99.99
2019-01-02T07:50:18.636Z,99.99
2019-01-02T07:51:18.629Z,99.99
2019-01-02T07:52:18.624Z,99.99
2019-01-02T07:53:18.617Z,99.99
2019-01-02T07:54:18.636Z,99.99
2019-01-02T07:55:18.603Z,99.99
2019-01-02T07:56:18.600Z,99.99
2019-01-02T07:57:18.591Z,99.99
2019-01-02T07:58:18.586Z,99.99
2019-01-02T07:59:18.604Z,99.99
2019-01-02T08:00:18.572Z,99.99
2019-01-02T08:01:18.566Z,99.99
2019-01-02T08:02:18.560Z,99.99
2019-01-02T08:03:18.580Z,99.99
2019-01-02T08:04:18.548Z,99.99
2019-01-02T08:05:18.566Z,99.99
2019-01-02T08:06:18.539Z,99.99
2019-01-02T08:07:18.540Z,99.99
2019-01-02T08:08:18.527Z,99.99
2019-01-02T08:09:18.542Z,99.99
2019-01-02T08:10:18.514Z,99.99
2019-01-02T08:11:18.505Z,99.99
2019-01-02T08:12:18.500Z,99.99
2019-01-02T08:13:18.492Z,99.99
2019-01-02T08:14:18.516Z,99.99
2019-01-02T08:15:18.481Z,99.99
2019-01-02T08:16:18.485Z,99.99
2019-01-02T08:17:18.467Z,99.99
2019-01-02T08:18:19.458Z,99.99
2019-01-02T08:19:18.487Z,99.99
2019-01-02T08:20:18.451Z,99.99
2019-01-02T08:21:18.445Z,99.99
2019-01-02T08:22:18.437Z,99.99
2019-01-02T08:23:18.435Z,99.99
2019-01-02T08:24:18.458Z,99.99
2019-01-02T08:25:18.423Z,99.99
2019-01-02T08:26:18.415Z,99.99
2019-01-02T08:27:18.410Z,99.99
2019-01-02T08:28:18.402Z,99.99
2019-01-02T08:29:18.433Z,99.99
2019-01-02T08:30:18.391Z,99.99
2019-01-02T08:31:18.384Z,99.99
2019-01-02T08:32:18.380Z,99.99
2019-01-02T08:33:18.374Z,99.99
2019-01-02T08:34:18.399Z,99.99
2019-01-02T08:35:18.428Z,99.99
2019-01-02T08:36:18.356Z,99.99
2019-01-02T08:37:18.353Z,99.99
2019-01-02T08:38:18.351Z,99.99
2019-01-02T08:39:18.335Z,99.99
2019-01-02T08:40:18.424Z,99.99
2019-01-02T08:41:18.328Z,99.99
2019-01-02T08:42:18.327Z,99.99
2019-01-02T08:43:18.316Z,99.99
2019-01-02T08:44:18.311Z,99.99
2019-01-02T08:45:18.353Z,99.99
2019-01-02T08:46:18.297Z,99.99
2019-01-02T08:47:18.296Z,99.99
2019-01-02T08:48:18.287Z,99.99
2019-01-02T08:49:18.281Z,99.99
2019-01-02T08:50:18.309Z,99.99
2019-01-02T08:51:18.268Z,99.99
2019-01-02T08:52:18.267Z,99.99
2019-01-02T08:53:18.258Z,99.99
2019-01-02T08:54:18.253Z,99.99
2019-01-02T08:55:18.275Z,99.99
2019-01-02T08:56:18.242Z,99.99
2019-01-02T08:57:18.240Z,99.99
2019-01-02T08:58:18.965Z,99.99
2019-01-02T08:59:18.227Z,99.99
2019-01-02T09:00:18.251Z,99.99
2019-01-02T09:01:18.270Z,99.99
2019-01-02T09:02:18.210Z,99.99
2019-01-02T09:03:18.206Z,99.99
2019-01-02T09:04:18.217Z,99.99
2019-01-02T09:05:18.199Z,99.99
2019-01-02T09:06:18.217Z,99.99
2019-01-02T09:07:18.212Z,99.99
2019-01-02T09:08:18.180Z,99.99
2019-01-02T09:09:18.177Z,99.99
2019-01-02T09:10:18.170Z,99.99
2019-01-02T09:11:18.189Z,99.99
2019-01-02T09:12:18.158Z,99.99
2019-01-02T09:13:18.159Z,99.99
2019-01-02T09:14:18.148Z,99.99
2019-01-02T09:15:18.145Z,99.99
2019-01-02T09:16:18.162Z,99.99
2019-01-02T09:17:18.132Z,99.99
2019-01-02T09:18:18.127Z,99.99
2019-01-02T09:19:18.125Z,99.99
2019-01-02T09:20:18.114Z,99.99
2019-01-02T09:21:18.139Z,99.99
2019-01-02T09:22:18.106Z,99.99
2019-01-02T09:23:18.099Z,99.99
2019-01-02T09:24:18.092Z,99.99
2019-01-02T09:25:18.091Z,99.99
2019-01-02T09:26:18.115Z,99.99
2019-01-02T09:27:18.076Z,99.99
2019-01-02T09:28:18.072Z,99.99
2019-01-02T09:29:18.067Z,99.99
2019-01-02T09:30:18.062Z,99.99
2019-01-02T09:31:18.084Z,99.99
2019-01-02T09:32:18.049Z,99.99
2019-01-02T09:33:18.045Z,99.99
2019-01-02T09:34:18.040Z,99.99
2019-01-02T09:35:18.035Z,99.99
2019-01-02T09:36:18.062Z,99.99
2019-01-02T09:37:18.064Z,99.99
2019-01-02T09:38:18.033Z,99.99
2019-01-02T09:39:18.013Z,99.99
2019-01-02T09:40:18.008Z,99.99
2019-01-02T09:41:18.003Z,99.99
2019-01-02T09:42:18.028Z,99.99
2019-01-02T09:43:24.391Z,99.99
2019-01-02T09:45:50.074Z,99.99
2019-01-02T09:46:50.067Z,99.99
2019-01-02T09:47:50.054Z,99.99
2019-01-02T09:48:50.032Z,99.99
2019-01-02T09:49:50.027Z,99.99
2019-01-02T09:50:50.023Z,99.99
2019-01-02T09:51:50.040Z,99.99
2019-01-02T09:52:50.033Z,99.99
2019-01-02T09:53:50.007Z,99.99
2019-01-02T09:54:49.999Z,99.99
2019-01-02T09:55:50.075Z,99.99
2019-01-02T09:56:49.994Z,99.99
2019-01-02T09:57:50.009Z,99.99
2019-01-02T09:58:49.981Z,99.99
2019-01-02T09:59:49.973Z,99.99
2019-01-02T10:00:49.968Z,99.99
2019-01-02T10:01:49.963Z,99.99
2019-01-02T10:02:49.983Z,99.99
2019-01-02T10:03:49.957Z,99.99
2019-01-02T10:04:49.949Z,99.99
2019-01-02T10:05:49.990Z,99.99
2019-01-02T10:06:49.936Z,99.99
2019-01-02T10:07:49.958Z,99.99
2019-01-02T10:08:49.925Z,99.99
2019-01-02T10:09:49.925Z,99.99
2019-01-02T10:10:49.916Z,99.99
2019-01-02T10:11:49.910Z,99.99
2019-01-02T10:12:49.931Z,99.99
2019-01-02T10:13:49.926Z,99.99
2019-01-02T10:14:49.899Z,99.99
2019-01-02T10:15:49.890Z,99.99
2019-01-02T10:16:49.890Z,99.99
2019-01-02T10:17:49.885Z,99.99
2019-01-02T10:18:49.903Z,99.99
2019-01-02T10:19:49.870Z,99.99
2019-01-02T10:20:49.866Z,99.99
2019-01-02T10:21:49.858Z,99.99
2019-01-02T10:22:49.854Z,99.99
2019-01-02T10:23:49.874Z,99.99
2019-01-02T10:24:49.845Z,99.99
2019-01-02T10:25:49.880Z,99.99
2019-01-02T10:26:49.834Z,99.99
2019-01-02T10:27:49.835Z,99.99
2019-01-02T10:28:49.854Z,99.99
2019-01-02T10:29:49.820Z,99.99
2019-01-02T10:30:49.814Z,99.99
2019-01-02T10:31:49.809Z,99.99
2019-01-02T10:32:49.829Z,99.99
2019-01-02T10:33:49.801Z,99.99
2019-01-02T10:34:49.798Z,99.99
2019-01-02T10:35:49.793Z,99.99
2019-01-02T10:36:49.784Z,99.99
2019-01-02T10:37:49.806Z,99.99
2019-01-02T10:38:49.776Z,99.99
2019-01-02T10:39:49.768Z,99.99
2019-01-02T10:40:49.766Z,99.99
2019-01-02T10:41:49.759Z,99.99
2019-01-02T10:42:49.782Z,99.99
2019-01-02T10:43:49.756Z,99.99
2019-01-02T10:44:49.746Z,99.99
2019-01-02T10:45:49.741Z,99.99
2019-01-02T10:46:49.735Z,99.99
2019-01-02T10:47:49.755Z,99.99
2019-01-02T10:48:49.721Z,99.99
2019-01-02T10:49:49.720Z,99.99
2019-01-02T10:50:49.721Z,99.99
2019-01-02T10:51:49.709Z,99.99
2019-01-02T10:52:49.736Z,99.99
2019-01-02T10:53:49.733Z,99.99
2019-01-02T10:54:49.702Z,99.99
2019-01-02T10:55:49.701Z,99.99
2019-01-02T10:56:49.696Z,99.99
2019-01-02T10:57:49.696Z,99.99
2019-01-02T10:58:49.721Z,99.99
2019-01-02T10:59:49.688Z,99.99
2019-01-02T11:00:49.683Z,99.99
2019-01-02T11:01:49.684Z,99.99
2019-01-02T11:02:49.704Z,99.99
2019-01-02T11:03:49.676Z,99.99
2019-01-02T11:04:49.699Z,99.99
2019-01-02T11:05:49.670Z,99.99
2019-01-02T11:06:49.665Z,99.99
2019-01-02T11:07:49.659Z,99.99
2019-01-02T11:08:49.693Z,99.99
2019-01-02T11:09:50.343Z,99.99
2019-01-02T11:10:49.645Z,95.17
2019-01-02T11:11:49.639Z,87.41
2019-01-02T11:12:49.642Z,99.71
2019-01-02T11:13:49.661Z,90.44
2019-01-02T11:14:49.628Z,63.54
2019-01-02T11:15:49.622Z,23.72
2019-01-02T11:16:49.624Z,0.00
2019-01-02T11:17:49.651Z,0.00
2019-01-02T11:18:49.604Z,0.00
2019-01-02T11:19:49.597Z,0.00
2019-01-02T11:20:49.618Z,0.00
2019-01-02T11:21:49.585Z,0.00
2019-01-02T11:22:49.588Z,0.00
2019-01-02T11:23:49.600Z,0.00
2019-01-02T11:24:49.568Z,0.00
2019-01-02T11:26:49.554Z,0.00
2019-01-02T11:27:49.579Z,0.00
2019-01-02T11:28:49.543Z,0.00
2019-01-02T11:29:49.533Z,0.00
2019-01-02T11:30:49.553Z,0.00
2019-01-02T11:31:49.523Z,0.00
2019-01-02T11:32:49.514Z,0.00
2019-01-02T11:33:49.532Z,0.00
2019-01-02T11:34:49.499Z,0.00
2019-01-02T11:35:49.492Z,0.00
2019-01-02T11:36:49.486Z,0.00
2019-01-02T11:37:49.478Z,0.00
2019-01-02T11:38:49.495Z,0.00
2019-01-02T11:39:49.461Z,0.00
2019-01-02T11:40:49.454Z,0.00
2019-01-02T11:41:49.460Z,0.00
2019-01-02T11:42:49.470Z,0.00
2019-01-02T11:43:49.433Z,0.00
2019-01-02T11:44:49.423Z,0.00
2019-01-02T11:45:49.417Z,0.00
2019-01-02T11:46:49.547Z,0.00
2019-01-02T11:47:49.404Z,0.00
2019-01-02T11:48:49.423Z,0.00
2019-01-02T11:49:49.390Z,0.00
2019-01-02T11:50:49.383Z,0.00
2019-01-02T11:51:49.374Z,0.00
2019-01-02T11:52:49.367Z,0.00
2019-01-02T11:53:49.395Z,0.00
2019-01-02T11:54:49.354Z,0.00
2019-01-02T11:55:49.346Z,0.00
2019-01-02T11:56:49.342Z,0.00
2019-01-02T11:57:49.334Z,0.00
2019-01-02T11:58:50.074Z,0.00
2019-01-02T11:59:49.319Z,0.00
2019-01-02T12:00:49.313Z,0.00
2019-01-02T12:01:49.310Z,0.00
2019-01-02T12:02:49.301Z,0.00
2019-01-02T12:03:49.320Z,0.00
2019-01-02T12:04:49.290Z,0.00
2019-01-02T12:05:49.282Z,0.00
2019-01-02T12:06:49.280Z,0.00
2019-01-02T12:07:49.220Z,0.00
2019-01-02T12:08:49.243Z,0.00
2019-01-02T12:09:50.177Z,0.00
2019-01-02T12:10:49.211Z,0.00
2019-01-02T12:11:49.205Z,0.00
2019-01-02T12:12:49.205Z,0.00
2019-01-02T12:13:49.226Z,0.00
2019-01-02T12:14:49.201Z,0.00
2019-01-02T12:15:49.193Z,0.00
2019-01-02T12:16:49.191Z,0.00
2019-01-02T12:17:49.188Z,0.00
2019-01-02T12:18:49.214Z,0.00
2019-01-02T12:19:49.176Z,0.00
2019-01-02T12:20:49.177Z,0.00
2019-01-02T12:21:49.169Z,0.00
2019-01-02T12:22:49.163Z,0.00
2019-01-02T12:23:49.187Z,0.00
2019-01-02T12:24:49.155Z,0.00
2019-01-02T12:25:49.149Z,0.00
2019-01-02T12:26:49.145Z,0.00
2019-01-02T12:27:49.139Z,0.00
2019-01-02T12:28:49.162Z,0.00
2019-01-02T12:29:49.134Z,0.00
2019-01-02T12:30:49.127Z,0.00
2019-01-02T12:31:49.119Z,0.00
2019-01-02T12:32:49.114Z,0.00
2019-01-02T12:33:49.136Z,0.00
2019-01-02T12:34:49.108Z,0.00
2019-01-02T12:35:49.097Z,0.00
2019-01-02T12:36:49.092Z,0.00
2019-01-02T12:37:49.087Z,0.00
2019-01-02T12:38:49.132Z,0.00
2019-01-02T12:39:49.079Z,0.00
2019-01-02T12:40:49.080Z,0.00
2019-01-02T12:41:49.066Z,0.00
2019-01-02T12:42:49.062Z,0.00
2019-01-02T12:43:49.082Z,0.00
2019-01-02T12:44:49.047Z,0.00
2019-01-02T12:45:49.039Z,0.00
2019-01-02T12:46:49.032Z,0.00
2019-01-02T12:47:49.027Z,0.00
2019-01-02T12:48:49.049Z,0.00
2019-01-02T12:49:49.014Z,0.00
2019-01-02T12:50:49.009Z,0.00
2019-01-02T12:51:49.006Z,0.00
2019-01-02T12:52:48.998Z,0.00
2019-01-02T12:53:49.016Z,0.00
2019-01-02T12:54:48.985Z,0.00
2019-01-02T12:55:48.980Z,0.00
2019-01-02T12:56:48.977Z,0.00
2019-01-02T12:57:48.968Z,0.00